createdAt,value
2018-11-01T00:02:27.842Z,37.63
2018-11-01T00:05:00.437Z,37.27
2018-11-01T00:07:31.978Z,38.33
2018-11-01T00:10:04.896Z,39.60
2018-11-01T00:12:40.626Z,40.97
2018-11-01T00:15:15.729Z,40.40
2018-11-01T00:17:49.861Z,38.92
2018-11-01T00:20:21.979Z,38.78
2018-11-01T00:22:57.969Z,40.20
2018-11-01T00:25:34.640Z,37.07
2018-11-01T00:28:06.765Z,38.10
2018-11-01T00:30:38.924Z,37.43
2018-11-01T00:33:12.731Z,38.83
2018-11-01T00:38:20.584Z,39.70
2018-11-01T00:40:54.307Z,40.20
2018-11-01T00:43:27.246Z,39.20
2018-11-01T00:45:59.620Z,38.83
2018-11-01T00:48:32.164Z,41.07
2018-11-01T00:51:05.595Z,40.03
2018-11-01T00:53:40.273Z,39.80
2018-11-01T00:56:12.799Z,39.10
2018-11-01T00:58:49.017Z,39.80
2018-11-01T01:01:24.035Z,39.23
2018-11-01T01:03:56.465Z,37.85
2018-11-01T01:06:30.039Z,38.02
2018-11-01T01:09:03.054Z,39.85
2018-11-01T01:14:20.259Z,39.70
2018-11-01T01:16:56.397Z,39.50
2018-11-01T01:19:30.937Z,34.73
2018-11-01T01:22:07.306Z,36.98
2018-11-01T01:24:39.289Z,39.27
2018-11-01T01:27:13.944Z,37.53
2018-11-01T01:29:47.913Z,37.63
2018-11-01T01:34:58.211Z,43.17
2018-11-01T01:37:30.951Z,42.53
2018-11-01T01:40:03.239Z,39.92
2018-11-01T01:42:39.426Z,39.77
2018-11-01T01:45:13.118Z,36.15
2018-11-01T01:47:46.500Z,37.27
2018-11-01T01:50:20.641Z,37.63
2018-11-01T01:55:30.543Z,38.57
2018-11-01T01:58:04.252Z,39.53
2018-11-01T02:00:37.871Z,40.37
2018-11-01T02:03:11.432Z,39.42
2018-11-01T02:05:44.440Z,41.07
2018-11-01T02:08:17.015Z,41.77
2018-11-01T02:10:49.207Z,42.13
2018-11-01T02:13:23.833Z,40.98
2018-11-01T02:15:56.906Z,40.12
2018-11-01T02:18:30.001Z,41.10
2018-11-01T02:21:04.378Z,42.65
2018-11-01T02:23:38.542Z,45.17
2018-11-01T02:26:12.038Z,44.48
2018-11-01T02:31:29.895Z,44.73
2018-11-01T02:34:05.480Z,42.80
2018-11-01T02:36:37.233Z,42.97
2018-11-01T02:39:17.547Z,43.90
2018-11-01T02:41:49.578Z,42.50
2018-11-01T02:44:22.691Z,42.77
2018-11-01T02:46:56.656Z,44.33
2018-11-01T02:49:29.728Z,42.13
2018-11-01T02:52:03.043Z,41.60
2018-11-01T02:54:36.848Z,39.67
2018-11-01T02:57:09.775Z,40.23
2018-11-01T02:59:42.003Z,37.27
2018-11-01T03:02:15.040Z,36.03
2018-11-01T03:04:49.394Z,36.17
2018-11-01T03:07:21.635Z,36.20
2018-11-01T03:09:53.759Z,39.60
2018-11-01T03:12:26.308Z,37.13
2018-11-01T03:14:58.226Z,34.83
2018-11-01T03:20:10.420Z,36.30
2018-11-01T03:22:43.711Z,34.70
2018-11-01T03:25:17.971Z,34.00
2018-11-01T03:27:51.940Z,34.47
2018-11-01T03:30:29.743Z,34.37
2018-11-01T03:33:02.508Z,33.57
2018-11-01T03:35:36.106Z,33.73
2018-11-01T03:38:11.120Z,34.23
2018-11-01T03:40:43.585Z,34.47
2018-11-01T03:43:17.058Z,33.63
2018-11-01T03:45:50.531Z,36.27
2018-11-01T03:48:26.943Z,35.92
2018-11-01T03:50:59.621Z,34.83
2018-11-01T03:53:33.036Z,35.07
2018-11-01T03:56:06.920Z,33.60
2018-11-01T03:58:40.761Z,32.40
2018-11-01T04:01:13.102Z,32.85
2018-11-01T04:03:46.270Z,32.70
2018-11-01T04:06:19.763Z,30.43
2018-11-01T04:11:28.637Z,32.80
2018-11-01T04:14:03.090Z,31.80
2018-11-01T04:16:34.791Z,31.17
2018-11-01T04:19:08.520Z,30.47
2018-11-01T04:21:41.932Z,30.93
2018-11-01T04:24:14.656Z,30.77
2018-11-01T04:26:47.254Z,32.67
2018-11-01T04:29:20.124Z,30.13
2018-11-01T04:31:53.179Z,29.82
2018-11-01T04:34:25.933Z,30.27
2018-11-01T04:36:58.551Z,29.57
2018-11-01T04:39:31.282Z,29.10
2018-11-01T04:42:03.836Z,27.95
2018-11-01T04:44:36.800Z,27.45
2018-11-01T04:47:09.426Z,26.35
2018-11-01T04:52:18.071Z,27.97
2018-11-01T04:54:52.088Z,27.33
2018-11-01T04:57:24.724Z,26.70
2018-11-01T05:00:00.948Z,26.03
2018-11-01T05:02:34.882Z,26.27
2018-11-01T05:05:10.181Z,26.37
2018-11-01T05:07:42.789Z,25.43
2018-11-01T05:10:15.489Z,24.15
2018-11-01T05:12:49.665Z,23.05
2018-11-01T05:15:21.539Z,23.83
2018-11-01T05:17:54.387Z,24.87
2018-11-01T05:20:38.505Z,23.40
2018-11-01T05:23:11.438Z,24.10
2018-11-01T05:25:44.187Z,29.72
2018-11-01T05:28:16.628Z,28.47
2018-11-01T05:30:50.930Z,27.95
2018-11-01T05:37:04.536Z,27.80
2018-11-01T05:39:36.789Z,27.17
2018-11-01T05:42:09.821Z,24.98
2018-11-01T05:44:41.998Z,24.93
2018-11-01T05:47:16.078Z,21.57
2018-11-01T05:49:49.003Z,22.30
2018-11-01T05:52:21.681Z,20.82
2018-11-01T05:54:57.371Z,22.00
2018-11-01T05:57:30.317Z,20.57
2018-11-01T06:00:04.658Z,20.53
2018-11-01T06:02:42.565Z,19.83
2018-11-01T06:05:15.482Z,20.55
2018-11-01T06:07:58.869Z,20.65
2018-11-01T06:10:32.632Z,18.85
2018-11-01T06:13:05.796Z,18.73
2018-11-01T06:15:44.329Z,19.92
2018-11-01T06:18:18.385Z,18.63
2018-11-01T06:20:52.075Z,18.80
2018-11-01T06:23:26.299Z,18.97
2018-11-01T06:28:36.226Z,19.73
2018-11-01T06:33:44.812Z,19.87
2018-11-01T06:36:17.555Z,20.90
2018-11-01T06:38:49.865Z,21.63
2018-11-01T06:41:22.856Z,19.50
2018-11-01T06:43:57.845Z,18.57
2018-11-01T06:46:32.206Z,19.73
2018-11-01T06:49:06.786Z,18.48
2018-11-01T06:51:40.729Z,19.00
2018-11-01T06:54:18.483Z,19.52
2018-11-01T06:56:52.251Z,19.48
2018-11-01T06:59:28.526Z,19.03
2018-11-01T07:02:04.129Z,17.75
2018-11-01T07:04:36.948Z,17.10
2018-11-01T07:07:09.200Z,17.40
2018-11-01T07:09:42.279Z,17.00
2018-11-01T07:12:15.668Z,19.05
2018-11-01T07:17:24.678Z,18.73
2018-11-01T07:19:57.660Z,18.13
2018-11-01T07:22:30.092Z,18.20
2018-11-01T07:25:02.572Z,18.20
2018-11-01T07:27:36.276Z,16.37
2018-11-01T07:30:13.056Z,17.85
2018-11-01T07:32:45.337Z,17.13
2018-11-01T07:35:18.782Z,18.23
2018-11-01T07:37:54.895Z,17.67
2018-11-01T07:40:26.347Z,17.23
2018-11-01T07:43:00.555Z,16.45
2018-11-01T07:45:33.308Z,16.67
2018-11-01T07:52:04.916Z,16.60
2018-11-01T07:54:36.639Z,15.57
2018-11-01T07:57:08.668Z,15.28
2018-11-01T07:59:40.489Z,14.93
2018-11-01T08:02:12.787Z,15.50
2018-11-01T08:04:44.503Z,17.00
2018-11-01T08:07:16.074Z,16.27
2018-11-01T08:09:47.908Z,15.55
2018-11-01T08:12:20.314Z,15.90
2018-11-01T08:14:51.997Z,15.93
2018-11-01T08:17:23.829Z,16.97
2018-11-01T08:19:56.328Z,15.23
2018-11-01T08:22:28.068Z,15.83
2018-11-01T08:24:59.788Z,14.68
2018-11-01T08:27:31.605Z,11.13
2018-11-01T08:30:03.180Z,10.90
2018-11-01T08:32:35.020Z,10.70
2018-11-01T08:35:06.801Z,9.95
2018-11-01T08:37:38.765Z,8.03
2018-11-01T08:40:11.565Z,8.30
2018-11-01T08:42:43.527Z,7.83
2018-11-01T08:45:15.898Z,7.13
2018-11-01T08:47:47.655Z,7.30
2018-11-01T08:52:55.631Z,7.63
2018-11-01T08:55:27.476Z,7.75
2018-11-01T08:57:59.704Z,7.90
2018-11-01T09:00:31.941Z,7.92
2018-11-01T09:03:03.826Z,7.90
2018-11-01T09:05:35.930Z,8.10
2018-11-01T09:08:08.309Z,7.42
2018-11-01T09:10:40.339Z,8.90
2018-11-01T09:13:12.032Z,8.18
2018-11-01T09:15:43.656Z,8.53
2018-11-01T09:18:15.368Z,8.83
2018-11-01T09:20:47.837Z,8.63
2018-11-01T09:23:19.440Z,7.97
2018-11-01T09:25:52.471Z,7.15
2018-11-01T09:28:24.197Z,6.87
2018-11-01T09:30:57.566Z,7.83
2018-11-01T09:33:30.159Z,7.40
2018-11-01T09:36:06.338Z,8.13
2018-11-01T09:38:37.965Z,7.73
2018-11-01T09:41:10.134Z,6.90
2018-11-01T09:43:42.342Z,6.70
2018-11-01T09:46:25.186Z,6.97
2018-11-01T09:48:56.772Z,8.53
2018-11-01T09:51:29.503Z,8.20
2018-11-01T09:54:01.521Z,7.87
2018-11-01T09:56:33.407Z,8.90
2018-11-01T09:59:07.036Z,8.43
2018-11-01T10:01:39.145Z,7.37
2018-11-01T10:04:11.206Z,8.55
2018-11-01T10:06:43.316Z,7.30
2018-11-01T10:09:14.825Z,9.53
2018-11-01T10:14:22.504Z,9.13
2018-11-01T10:16:54.290Z,6.57
2018-11-01T10:19:25.747Z,5.67
2018-11-01T10:21:57.200Z,5.00
2018-11-01T10:24:29.081Z,4.87
2018-11-01T10:27:00.974Z,4.67
2018-11-01T10:29:33.478Z,4.62
2018-11-01T10:32:12.820Z,4.60
2018-11-01T10:34:44.637Z,4.47
2018-11-01T10:37:16.361Z,5.67
2018-11-01T10:39:48.222Z,4.67
2018-11-01T10:42:20.326Z,4.75
2018-11-01T10:44:52.258Z,4.97
2018-11-01T10:47:23.865Z,5.97
2018-11-01T10:49:55.290Z,5.57
2018-11-01T10:52:30.556Z,5.17
2018-11-01T10:55:03.437Z,5.95
2018-11-01T10:57:35.036Z,5.93
2018-11-01T11:00:07.500Z,5.90
2018-11-01T11:02:41.347Z,5.03
2018-11-01T11:05:12.994Z,4.22
2018-11-01T11:07:44.735Z,3.93
2018-11-01T11:10:16.586Z,4.30
2018-11-01T11:12:48.339Z,4.73
2018-11-01T11:15:20.155Z,5.60
2018-11-01T11:17:52.226Z,6.08
2018-11-01T11:20:24.320Z,4.97
2018-11-01T11:22:56.382Z,4.53
2018-11-01T11:28:04.873Z,4.87
2018-11-01T11:30:38.009Z,4.10
2018-11-01T11:33:10.246Z,3.90
2018-11-01T11:35:41.985Z,3.95
2018-11-01T11:38:14.288Z,4.28
2018-11-01T11:40:46.319Z,3.85
2018-11-01T11:43:18.629Z,4.05
2018-11-01T11:45:50.518Z,3.73
2018-11-01T11:48:22.316Z,4.80
2018-11-01T11:50:54.051Z,5.28
2018-11-01T11:53:26.096Z,4.80
2018-11-01T11:55:58.477Z,5.10
2018-11-01T11:58:30.381Z,5.47
2018-11-01T12:01:01.933Z,5.60
2018-11-01T12:03:37.563Z,5.57
2018-11-01T12:06:10.067Z,6.30
2018-11-01T12:08:41.818Z,7.22
2018-11-01T12:11:13.616Z,6.08
2018-11-01T12:13:45.939Z,7.50
2018-11-01T12:16:18.335Z,8.40
2018-11-01T12:18:50.213Z,7.17
2018-11-01T12:21:22.507Z,6.55
2018-11-01T12:23:54.211Z,5.30
2018-11-01T12:26:25.958Z,5.92
2018-11-01T12:28:57.707Z,5.25
2018-11-01T12:38:59.529Z,5.93
2018-11-01T12:41:31.170Z,6.23
2018-11-01T12:44:03.490Z,5.50
2018-11-01T12:46:36.123Z,5.37
2018-11-01T12:49:08.264Z,5.00
2018-11-01T12:51:40.762Z,5.47
2018-11-01T12:54:12.673Z,5.62
2018-11-01T12:56:44.627Z,5.77
2018-11-01T12:59:19.069Z,5.42
2018-11-01T13:01:53.760Z,5.47
2018-11-01T13:07:01.844Z,5.53
2018-11-01T13:09:33.521Z,5.27
2018-11-01T13:12:05.501Z,5.42
2018-11-01T13:14:37.645Z,5.30
2018-11-01T13:17:10.122Z,5.43
2018-11-01T13:19:42.188Z,5.50
2018-11-01T13:22:14.175Z,5.67
2018-11-01T13:24:46.496Z,5.40
2018-11-01T13:27:18.310Z,5.78
2018-11-01T13:29:50.115Z,5.70
2018-11-01T13:32:22.318Z,4.97
2018-11-01T13:34:54.444Z,5.03
2018-11-01T13:37:26.183Z,5.70
2018-11-01T13:39:57.862Z,5.45
2018-11-01T13:42:29.833Z,5.80
2018-11-01T13:45:01.448Z,4.97
2018-11-01T13:47:33.207Z,5.27
2018-11-01T13:50:05.287Z,5.80
2018-11-01T13:52:36.917Z,5.65
2018-11-01T13:55:10.629Z,6.10
2018-11-01T13:57:42.577Z,6.47
2018-11-01T14:00:15.984Z,6.93
2018-11-01T14:02:48.627Z,7.67
2018-11-01T14:05:20.138Z,7.35
2018-11-01T14:07:53.290Z,6.22
2018-11-01T14:10:24.959Z,7.83
2018-11-01T14:12:57.133Z,6.90
2018-11-01T14:15:28.814Z,6.20
2018-11-01T14:20:37.098Z,7.00
2018-11-01T14:25:48.209Z,9.17
2018-11-01T14:28:19.938Z,8.55
2018-11-01T14:30:51.902Z,8.60
2018-11-01T14:33:24.606Z,7.95
2018-11-01T14:35:56.536Z,8.18
2018-11-01T14:38:28.441Z,8.37
2018-11-01T14:41:00.197Z,9.00
2018-11-01T14:43:31.745Z,10.85
2018-11-01T14:46:03.797Z,10.48
2018-11-01T14:48:35.351Z,7.90
2018-11-01T14:51:07.092Z,9.33
2018-11-01T14:53:39.388Z,8.43
2018-11-01T14:56:12.745Z,10.23
2018-11-01T14:58:45.932Z,11.13
2018-11-01T15:01:16.495Z,11.17
2018-11-01T15:03:48.654Z,10.65
2018-11-01T15:06:20.456Z,10.80
2018-11-01T15:08:52.246Z,10.72
2018-11-01T15:11:24.253Z,10.32
2018-11-01T15:13:56.022Z,11.00
2018-11-01T15:16:27.778Z,17.65
2018-11-01T15:19:02.257Z,10.25
2018-11-01T15:21:33.765Z,9.80
2018-11-01T15:24:05.670Z,10.30
2018-11-01T15:26:37.482Z,11.43
2018-11-01T15:29:09.774Z,12.13
2018-11-01T15:31:41.730Z,13.75
2018-11-01T15:34:13.479Z,14.68
2018-11-01T15:36:45.253Z,16.90
2018-11-01T15:39:17.007Z,19.77
2018-11-01T15:41:48.590Z,19.87
2018-11-01T15:44:20.246Z,21.27
2018-11-01T15:46:53.604Z,19.73
2018-11-01T15:50:32.138Z,18.37
2018-11-01T15:53:03.751Z,15.27
2018-11-01T15:55:35.919Z,14.97
2018-11-01T15:58:08.173Z,14.43
2018-11-01T16:00:39.921Z,12.97
2018-11-01T16:03:12.058Z,13.07
2018-11-01T16:05:43.976Z,11.80
2018-11-01T16:10:52.527Z,12.43
2018-11-01T16:13:24.382Z,11.08
2018-11-01T16:15:56.210Z,12.70
2018-11-01T16:18:28.135Z,11.85
2018-11-01T16:21:00.853Z,12.90
2018-11-01T16:23:33.395Z,11.00
2018-11-01T16:26:06.245Z,11.90
2018-11-01T16:28:38.434Z,14.70
2018-11-01T16:31:10.061Z,10.57
2018-11-01T16:36:17.963Z,11.03
2018-11-01T16:38:49.942Z,9.88
2018-11-01T16:41:21.706Z,10.25
2018-11-01T16:43:53.309Z,12.03
2018-11-01T16:46:24.889Z,12.30
2018-11-01T16:48:56.977Z,12.10
2018-11-01T16:51:29.247Z,11.10
2018-11-01T16:54:01.381Z,10.80
2018-11-01T16:56:33.000Z,11.75
2018-11-01T16:59:04.916Z,11.87
2018-11-01T17:01:37.536Z,11.60
2018-11-01T17:04:09.397Z,12.03
2018-11-01T17:06:41.173Z,11.57
2018-11-01T17:09:13.588Z,11.43
2018-11-01T17:11:45.541Z,12.07
2018-11-01T17:14:18.640Z,12.05
2018-11-01T17:16:50.338Z,12.07
2018-11-01T17:19:22.052Z,13.13
2018-11-01T17:21:53.804Z,11.87
2018-11-01T17:24:27.041Z,11.50
2018-11-01T17:26:58.894Z,11.80
2018-11-01T17:29:30.383Z,11.55
2018-11-01T17:32:02.366Z,12.63
2018-11-01T17:34:33.940Z,12.43
2018-11-01T17:37:06.964Z,12.68
2018-11-01T17:39:39.001Z,12.18
2018-11-01T17:42:10.701Z,12.43
2018-11-01T17:44:42.380Z,12.98
2018-11-01T17:47:14.990Z,12.70
2018-11-01T17:49:47.303Z,13.32
2018-11-01T17:52:19.654Z,12.80
2018-11-01T17:54:52.014Z,13.37
2018-11-01T17:57:24.063Z,13.97
2018-11-01T17:59:55.759Z,19.02
2018-11-01T18:02:28.190Z,13.57
2018-11-01T18:04:59.744Z,12.95
2018-11-01T18:10:09.348Z,14.43
2018-11-01T18:12:41.336Z,14.78
2018-11-01T18:15:13.761Z,13.62
2018-11-01T18:17:45.395Z,13.43
2018-11-01T18:20:17.287Z,13.80
2018-11-01T18:22:49.185Z,13.47
2018-11-01T18:25:20.960Z,12.77
2018-11-01T18:27:52.607Z,13.32
2018-11-01T18:30:24.905Z,13.88
2018-11-01T18:32:56.721Z,14.83
2018-11-01T18:35:28.393Z,14.90
2018-11-01T18:40:36.450Z,15.50
2018-11-01T18:43:08.402Z,17.77
2018-11-01T18:45:40.242Z,15.23
2018-11-01T18:48:11.929Z,15.93
2018-11-01T18:50:43.907Z,13.53
2018-11-01T18:53:17.424Z,15.97
2018-11-01T18:55:49.761Z,14.40
2018-11-01T18:58:22.043Z,14.90
2018-11-01T19:00:54.908Z,13.10
2018-11-01T19:03:29.443Z,14.67
2018-11-01T19:06:01.719Z,13.33
2018-11-01T19:08:34.184Z,12.87
2018-11-01T19:11:06.666Z,13.53
2018-11-01T19:13:38.803Z,14.47
2018-11-01T19:16:10.788Z,13.30
2018-11-01T19:18:43.385Z,13.67
2018-11-01T19:21:16.421Z,12.82
2018-11-01T19:23:48.215Z,13.43
2018-11-01T19:26:20.105Z,13.78
2018-11-01T19:28:51.619Z,13.45
2018-11-01T19:31:23.477Z,12.55
2018-11-01T19:33:56.083Z,16.37
2018-11-01T19:36:27.650Z,15.83
2018-11-01T19:38:59.722Z,14.77
2018-11-01T19:41:31.371Z,14.07
2018-11-01T19:44:02.887Z,12.10
2018-11-01T19:46:34.571Z,11.60
2018-11-01T19:49:06.515Z,10.88
2018-11-01T19:51:38.168Z,11.88
2018-11-01T19:54:09.860Z,11.83
2018-11-01T19:56:41.862Z,11.95
2018-11-01T19:59:13.716Z,12.30
2018-11-01T20:01:45.533Z,12.05
2018-11-01T20:04:17.581Z,12.65
2018-11-01T20:06:49.481Z,11.03
2018-11-01T20:09:21.692Z,11.75
2018-11-01T20:11:54.400Z,12.10
2018-11-01T20:14:26.102Z,11.60
2018-11-01T20:16:57.694Z,12.47
2018-11-01T20:19:29.591Z,11.53
2018-11-01T20:22:01.372Z,11.80
2018-11-01T20:24:36.510Z,11.70
2018-11-01T20:27:09.743Z,12.00
2018-11-01T20:29:41.330Z,11.22
2018-11-01T20:32:13.254Z,11.85
2018-11-01T20:34:45.060Z,12.33
2018-11-01T20:37:16.820Z,11.05
2018-11-01T20:39:48.589Z,14.80
2018-11-01T20:42:21.027Z,10.70
2018-11-01T20:44:52.929Z,10.90
2018-11-01T20:47:24.767Z,10.87
2018-11-01T20:49:56.715Z,10.58
2018-11-01T20:52:28.524Z,10.98
2018-11-01T20:55:01.018Z,10.33
2018-11-01T20:57:33.210Z,9.60
2018-11-01T21:00:05.126Z,10.58
2018-11-01T21:02:37.524Z,10.43
2018-11-01T21:05:09.437Z,10.80
2018-11-01T21:07:41.696Z,10.23
2018-11-01T21:10:13.412Z,9.98
2018-11-01T21:12:45.184Z,10.10
2018-11-01T21:15:17.524Z,9.73
2018-11-01T21:17:49.448Z,10.13
2018-11-01T21:20:21.253Z,9.93
2018-11-01T21:22:52.862Z,9.43
2018-11-01T21:25:24.593Z,9.45
2018-11-01T21:27:56.417Z,9.70
2018-11-01T21:30:28.783Z,10.10
2018-11-01T21:39:37.355Z,9.37
2018-11-01T21:44:45.520Z,9.90
2018-11-01T21:47:17.210Z,9.25
2018-11-01T21:49:48.981Z,9.60
2018-11-01T21:52:21.456Z,10.23
2018-11-01T21:54:54.144Z,9.83
2018-11-01T21:57:26.002Z,9.13
2018-11-01T21:59:57.663Z,9.43
2018-11-01T22:02:29.605Z,8.43
2018-11-01T22:05:01.251Z,9.10
2018-11-01T22:07:34.081Z,9.68
2018-11-01T22:10:06.335Z,8.90
2018-11-01T22:12:38.876Z,9.07
2018-11-01T22:15:12.315Z,9.43
2018-11-01T22:17:44.909Z,9.40
2018-11-01T22:20:16.847Z,10.20
2018-11-01T22:22:48.293Z,9.17
2018-11-01T22:25:21.375Z,9.70
2018-11-01T22:27:53.066Z,8.93
2018-11-01T22:30:25.365Z,10.20
2018-11-01T22:32:57.166Z,9.95
2018-11-01T22:35:28.911Z,8.93
2018-11-01T22:38:00.826Z,8.55
2018-11-01T22:40:33.441Z,9.57
2018-11-01T22:43:05.486Z,9.27
2018-11-01T22:45:37.531Z,9.73
2018-11-01T22:48:16.026Z,8.83
2018-11-01T22:50:47.870Z,9.80
2018-11-01T22:53:20.335Z,9.48
2018-11-01T22:55:52.124Z,8.75
2018-11-01T22:58:23.947Z,9.40
2018-11-01T23:00:56.067Z,9.53
2018-11-01T23:06:04.647Z,8.47
2018-11-01T23:09:08.979Z,8.57
2018-11-01T23:14:17.716Z,9.00
2018-11-01T23:16:50.242Z,8.17
2018-11-01T23:19:21.897Z,9.93
2018-11-01T23:21:54.419Z,8.70
2018-11-01T23:24:26.777Z,8.23
2018-11-01T23:26:58.874Z,8.85
2018-11-01T23:29:30.795Z,8.47
2018-11-01T23:32:02.613Z,8.33
2018-11-01T23:34:35.204Z,8.67
2018-11-01T23:37:12.446Z,9.18
2018-11-01T23:39:49.465Z,8.33
2018-11-01T23:42:26.537Z,8.37
2018-11-01T23:45:03.325Z,8.90
2018-11-01T23:47:40.077Z,8.77
2018-11-01T23:50:19.442Z,8.80
2018-11-01T23:52:53.046Z,8.78
2018-11-01T23:55:24.988Z,9.17
2018-11-01T23:57:57.139Z,10.88
